createdAt,value
2023-01-22T00:01:09.221Z,23.85
2023-01-22T00:03:36.757Z,23.83
2023-01-22T00:06:04.036Z,23.83
2023-01-22T00:08:31.044Z,23.82
2023-01-22T00:10:58.019Z,23.82
2023-01-22T00:13:26.572Z,23.82
2023-01-22T00:15:53.816Z,23.81
2023-01-22T00:18:22.120Z,23.79
2023-01-22T00:20:50.492Z,23.79
2023-01-22T00:23:18.001Z,23.78
2023-01-22T00:25:45.434Z,23.77
2023-01-22T00:28:12.981Z,23.77
2023-01-22T00:30:40.353Z,23.76
2023-01-22T00:33:07.275Z,23.75
2023-01-22T00:35:37.058Z,23.74
2023-01-22T00:38:04.007Z,23.74
2023-01-22T00:40:32.460Z,23.72
2023-01-22T00:42:59.336Z,23.72
2023-01-22T00:45:26.253Z,23.70
2023-01-22T00:47:53.226Z,23.71
2023-01-22T00:50:20.403Z,23.69
2023-01-22T00:52:48.845Z,23.70
2023-01-22T00:55:16.025Z,23.69
2023-01-22T00:57:43.341Z,23.68
2023-01-22T01:00:14.930Z,23.66
2023-01-22T01:03:00.636Z,23.66
2023-01-22T01:05:27.798Z,23.64
2023-01-22T01:07:56.020Z,23.64
2023-01-22T01:10:22.925Z,23.64
2023-01-22T01:12:49.788Z,23.64
2023-01-22T01:15:19.948Z,23.63
2023-01-22T01:17:46.899Z,23.63
2023-01-22T01:20:13.936Z,23.63
2023-01-22T01:22:40.839Z,23.62
2023-01-22T01:25:09.195Z,23.61
2023-01-22T01:27:36.067Z,23.60
2023-01-22T01:30:03.191Z,23.59
2023-01-22T01:32:30.154Z,23.60
2023-01-22T01:34:57.027Z,23.59
2023-01-22T01:37:23.950Z,23.59
2023-01-22T01:39:52.702Z,23.58
2023-01-22T01:42:27.077Z,23.57
2023-01-22T01:45:21.903Z,23.57
2023-01-22T01:47:50.624Z,23.55
2023-01-22T01:50:19.314Z,23.55
2023-01-22T01:52:46.660Z,23.54
2023-01-22T01:55:15.624Z,23.54
2023-01-22T01:57:44.448Z,23.52
2023-01-22T02:00:14.401Z,23.52
2023-01-22T02:02:41.759Z,23.52
2023-01-22T02:05:10.122Z,23.50
2023-01-22T02:07:37.732Z,23.50
2023-01-22T02:10:06.406Z,23.51
2023-01-22T02:12:34.272Z,23.51
2023-01-22T02:15:06.564Z,23.49
2023-01-22T02:17:33.469Z,23.50
2023-01-22T02:20:00.384Z,23.50
2023-01-22T02:22:32.294Z,23.49
2023-01-22T02:25:00.432Z,23.48
2023-01-22T02:27:27.535Z,23.48
2023-01-22T02:29:54.500Z,23.47
2023-01-22T02:32:22.104Z,23.46
2023-01-22T02:34:49.379Z,23.46
2023-01-22T02:37:16.981Z,23.46
2023-01-22T02:39:45.257Z,23.46
2023-01-22T02:42:12.633Z,23.44
2023-01-22T02:44:41.181Z,23.45
2023-01-22T02:47:08.093Z,23.44
2023-01-22T02:49:36.363Z,23.43
2023-01-22T02:52:03.710Z,23.43
2023-01-22T02:54:31.474Z,23.42
2023-01-22T02:56:59.818Z,23.41
2023-01-22T02:59:26.917Z,23.40
2023-01-22T03:01:53.933Z,23.40
2023-01-22T03:04:20.846Z,23.42
2023-01-22T03:06:47.809Z,23.41
2023-01-22T03:09:16.910Z,23.40
2023-01-22T03:11:46.135Z,23.40
2023-01-22T03:14:37.591Z,23.39
2023-01-22T03:17:23.357Z,23.38
2023-01-22T03:20:09.826Z,23.35
2023-01-22T03:22:36.848Z,23.34
2023-01-22T03:25:03.930Z,23.34
2023-01-22T03:27:32.098Z,23.35
2023-01-22T03:30:00.480Z,23.34
2023-01-22T03:32:31.870Z,23.35
2023-01-22T03:34:59.377Z,23.35
2023-01-22T03:37:30.621Z,23.35
2023-01-22T03:40:00.186Z,23.33
2023-01-22T03:42:35.063Z,23.31
2023-01-22T03:45:03.534Z,23.32
2023-01-22T03:47:31.578Z,23.30
2023-01-22T03:49:58.651Z,23.31
2023-01-22T03:52:25.740Z,23.32
2023-01-22T03:54:52.965Z,23.31
2023-01-22T03:57:19.833Z,23.31
2023-01-22T03:59:46.843Z,23.31
2023-01-22T04:02:15.224Z,23.30
2023-01-22T04:04:58.796Z,23.31
2023-01-22T04:07:27.554Z,23.30
2023-01-22T04:09:54.420Z,23.30
2023-01-22T04:12:21.394Z,23.31
2023-01-22T04:14:48.280Z,23.31
2023-01-22T04:17:16.726Z,23.29
2023-01-22T04:20:04.468Z,23.30
2023-01-22T04:22:39.691Z,23.29
2023-01-22T04:25:09.587Z,23.28
2023-01-22T04:27:37.877Z,23.27
2023-01-22T04:30:06.819Z,23.27
2023-01-22T04:32:36.128Z,23.27
2023-01-22T04:35:13.098Z,23.27
2023-01-22T04:37:58.769Z,23.26
2023-01-22T04:40:25.826Z,23.25
2023-01-22T04:42:52.977Z,23.25
2023-01-22T04:45:20.150Z,23.25
2023-01-22T04:47:49.706Z,23.25
2023-01-22T04:50:21.891Z,23.24
2023-01-22T04:52:50.644Z,23.24
2023-01-22T04:55:17.774Z,23.24
2023-01-22T04:57:56.596Z,23.22
2023-01-22T05:00:24.327Z,23.21
2023-01-22T05:02:56.588Z,23.23
2023-01-22T05:05:23.643Z,23.22
2023-01-22T05:07:50.552Z,23.20
2023-01-22T05:10:17.762Z,23.18
2023-01-22T05:12:44.937Z,23.18
2023-01-22T05:15:23.668Z,23.19
2023-01-22T05:17:54.883Z,23.18
2023-01-22T05:20:22.070Z,23.20
2023-01-22T05:22:49.632Z,23.18
2023-01-22T05:25:19.107Z,23.17
2023-01-22T05:27:46.926Z,23.16
2023-01-22T05:30:19.673Z,23.18
2023-01-22T05:32:57.242Z,23.16
2023-01-22T05:35:25.280Z,23.17
2023-01-22T05:37:52.200Z,23.16
2023-01-22T05:40:20.497Z,23.16
2023-01-22T05:42:47.649Z,23.16
2023-01-22T05:45:14.737Z,23.16
2023-01-22T05:48:05.907Z,23.16
2023-01-22T05:50:41.414Z,23.15
2023-01-22T05:53:10.351Z,23.14
2023-01-22T05:55:37.804Z,23.15
2023-01-22T05:58:06.397Z,23.15
2023-01-22T06:00:34.747Z,23.14
2023-01-22T06:03:05.990Z,23.15
2023-01-22T06:05:43.090Z,23.13
2023-01-22T06:08:11.124Z,23.12
2023-01-22T06:10:46.602Z,23.13
2023-01-22T06:13:13.545Z,23.19
2023-01-22T06:15:43.088Z,23.24
2023-01-22T06:18:37.588Z,23.30
2023-01-22T06:21:06.585Z,23.35
2023-01-22T06:23:34.438Z,23.41
2023-01-22T06:26:03.047Z,23.48
2023-01-22T06:28:30.264Z,23.56
2023-01-22T06:30:59.453Z,23.62
2023-01-22T06:33:26.414Z,23.69
2023-01-22T06:35:55.716Z,23.79
2023-01-22T06:38:24.192Z,23.89
2023-01-22T06:40:52.066Z,23.97
2023-01-22T06:43:19.329Z,24.06
2023-01-22T06:45:49.034Z,24.15
2023-01-22T06:48:18.308Z,24.25
2023-01-22T06:50:45.765Z,24.36
2023-01-22T06:53:14.296Z,24.44
2023-01-22T06:55:41.404Z,24.53
2023-01-22T06:58:08.331Z,24.63
2023-01-22T07:00:35.247Z,24.71
2023-01-22T07:03:06.907Z,24.79
2023-01-22T07:05:34.980Z,24.88
2023-01-22T07:08:02.548Z,24.95
2023-01-22T07:10:30.904Z,25.02
2023-01-22T07:13:01.602Z,25.09
2023-01-22T07:15:28.540Z,25.16
2023-01-22T07:17:55.567Z,25.22
2023-01-22T07:20:23.905Z,25.28
2023-01-22T07:22:51.471Z,25.34
2023-01-22T07:25:18.462Z,25.39
2023-01-22T07:27:46.751Z,25.44
2023-01-22T07:30:14.462Z,25.49
2023-01-22T07:32:41.463Z,25.54
2023-01-22T07:35:08.671Z,25.59
2023-01-22T07:37:36.397Z,25.64
2023-01-22T07:40:04.880Z,25.68
2023-01-22T07:42:31.774Z,25.72
2023-01-22T07:45:00.095Z,25.75
2023-01-22T07:47:26.973Z,25.78
2023-01-22T07:49:53.854Z,25.83
2023-01-22T07:52:20.712Z,25.86
2023-01-22T07:54:47.647Z,25.89
2023-01-22T07:57:16.629Z,25.91
2023-01-22T07:59:43.585Z,25.94
2023-01-22T08:02:13.868Z,25.97
2023-01-22T08:04:41.512Z,26.00
2023-01-22T08:07:16.115Z,26.03
2023-01-22T08:09:43.265Z,26.06
2023-01-22T08:12:10.706Z,26.07
2023-01-22T08:14:37.601Z,26.09
2023-01-22T08:17:04.540Z,26.12
2023-01-22T08:19:32.811Z,26.13
2023-01-22T08:21:59.721Z,26.15
2023-01-22T08:24:26.625Z,26.17
2023-01-22T08:26:53.581Z,26.18
2023-01-22T08:29:20.767Z,26.20
2023-01-22T08:31:47.712Z,26.21
2023-01-22T08:34:14.634Z,26.21
2023-01-22T08:36:42.974Z,26.21
2023-01-22T08:39:10.740Z,26.22
2023-01-22T08:41:37.798Z,26.23
2023-01-22T08:44:04.938Z,26.23
2023-01-22T08:46:31.844Z,26.24
2023-01-22T08:48:58.696Z,26.25
2023-01-22T08:51:26.711Z,26.25
2023-01-22T08:53:55.010Z,26.25
2023-01-22T08:56:21.901Z,26.26
2023-01-22T08:58:50.340Z,26.25
2023-01-22T09:01:19.012Z,26.25
2023-01-22T09:03:46.213Z,26.25
2023-01-22T09:06:13.047Z,26.26
2023-01-22T09:08:40.015Z,26.25
2023-01-22T09:11:08.313Z,26.26
2023-01-22T09:13:35.363Z,26.27
2023-01-22T09:16:02.279Z,26.28
2023-01-22T09:18:29.200Z,26.29
2023-01-22T09:20:56.205Z,26.30
2023-01-22T09:23:23.067Z,26.31
2023-01-22T09:25:49.898Z,26.30
2023-01-22T09:28:18.216Z,26.30
2023-01-22T09:30:45.177Z,26.28
2023-01-22T09:33:12.105Z,26.30
2023-01-22T09:35:38.969Z,26.30
2023-01-22T09:38:05.948Z,26.32
2023-01-22T09:40:39.376Z,26.34
2023-01-22T09:43:13.716Z,26.37
2023-01-22T09:45:42.707Z,26.41
2023-01-22T09:48:15.382Z,26.43
2023-01-22T09:50:43.333Z,26.44
2023-01-22T09:53:15.860Z,26.45
2023-01-22T09:55:46.087Z,26.45
2023-01-22T09:58:17.249Z,26.47
2023-01-22T10:00:51.326Z,26.48
2023-01-22T10:03:24.919Z,26.47
2023-01-22T10:05:55.512Z,26.47
2023-01-22T10:08:25.651Z,26.48
2023-01-22T10:10:52.531Z,26.46
2023-01-22T10:13:20.951Z,26.47
2023-01-22T10:15:51.046Z,26.46
2023-01-22T10:18:27.819Z,26.46
2023-01-22T10:20:55.887Z,26.45
2023-01-22T10:23:25.706Z,26.45
2023-01-22T10:25:57.069Z,26.45
2023-01-22T10:28:24.556Z,26.45
2023-01-22T10:30:57.834Z,26.41
2023-01-22T10:33:27.536Z,26.40
2023-01-22T10:35:56.840Z,26.40
2023-01-22T10:38:27.345Z,26.39
2023-01-22T10:40:57.024Z,26.40
2023-01-22T10:43:31.946Z,26.40
2023-01-22T10:46:05.362Z,26.40
2023-01-22T10:48:33.283Z,26.40
2023-01-22T10:51:11.515Z,26.38
2023-01-22T10:53:45.431Z,26.39
2023-01-22T10:56:13.909Z,26.39
2023-01-22T10:58:48.098Z,26.39
2023-01-22T11:01:36.094Z,26.39
2023-01-22T11:04:12.514Z,26.36
2023-01-22T11:06:42.011Z,26.38
2023-01-22T11:09:16.029Z,26.36
2023-01-22T11:11:48.671Z,26.36
2023-01-22T11:14:21.250Z,26.35
2023-01-22T11:16:52.597Z,26.35
2023-01-22T11:19:36.041Z,26.34
2023-01-22T11:22:13.258Z,26.31
2023-01-22T11:24:47.152Z,26.31
2023-01-22T11:27:38.035Z,26.29
2023-01-22T11:30:18.088Z,26.28
2023-01-22T11:32:59.197Z,26.28
2023-01-22T11:35:30.091Z,26.27
2023-01-22T11:38:22.635Z,26.28
2023-01-22T11:41:04.193Z,26.25
2023-01-22T11:43:55.508Z,26.25
2023-01-22T11:46:40.932Z,26.23
2023-01-22T11:49:19.493Z,26.22
2023-01-22T11:51:59.139Z,26.21
2023-01-22T11:54:46.445Z,26.20
2023-01-22T11:57:20.325Z,26.20
2023-01-22T12:00:18.112Z,26.18
2023-01-22T12:03:13.013Z,26.18
2023-01-22T12:05:46.148Z,26.17
2023-01-22T12:08:29.576Z,26.15
2023-01-22T12:11:11.219Z,26.14
2023-01-22T12:14:00.442Z,26.14
2023-01-22T12:16:35.308Z,26.12
2023-01-22T12:19:42.180Z,26.12
2023-01-22T12:22:24.098Z,26.09
2023-01-22T12:24:59.094Z,26.08
2023-01-22T12:27:31.880Z,26.08
2023-01-22T12:30:12.172Z,26.06
2023-01-22T12:32:43.189Z,26.07
2023-01-22T12:35:15.985Z,26.05
2023-01-22T12:37:47.951Z,26.04
2023-01-22T12:40:49.300Z,26.04
2023-01-22T12:43:21.647Z,26.00
2023-01-22T12:45:55.899Z,26.00
2023-01-22T12:48:27.310Z,25.99
2023-01-22T12:50:55.669Z,25.99
2023-01-22T12:53:26.992Z,25.98
2023-01-22T12:55:58.345Z,25.99
2023-01-22T12:58:27.781Z,25.96
2023-01-22T13:01:20.861Z,25.95
2023-01-22T13:03:59.291Z,25.93
2023-01-22T13:06:32.288Z,25.93
2023-01-22T13:09:00.976Z,25.93
2023-01-22T13:11:30.860Z,25.92
2023-01-22T13:14:14.760Z,25.91
2023-01-22T13:16:52.097Z,25.90
2023-01-22T13:19:21.764Z,25.90
2023-01-22T13:21:49.817Z,25.89
2023-01-22T13:24:19.679Z,25.90
2023-01-22T13:26:52.807Z,25.88
2023-01-22T13:29:22.409Z,25.87
2023-01-22T13:31:53.982Z,25.87
2023-01-22T13:34:21.247Z,25.87
2023-01-22T13:36:49.589Z,25.87
2023-01-22T13:39:20.086Z,25.85
2023-01-22T13:41:50.809Z,25.84
2023-01-22T13:44:20.406Z,25.84
2023-01-22T13:46:48.807Z,25.84
2023-01-22T13:49:20.330Z,25.83
2023-01-22T13:51:47.818Z,25.82
2023-01-22T13:54:24.236Z,25.82
2023-01-22T13:56:52.538Z,25.82
2023-01-22T13:59:22.025Z,25.81
2023-01-22T14:01:49.559Z,25.79
2023-01-22T14:04:37.062Z,25.78
2023-01-22T14:07:04.784Z,25.78
2023-01-22T14:09:36.339Z,25.76
2023-01-22T14:12:14.140Z,25.74
2023-01-22T14:14:42.040Z,25.74
2023-01-22T14:17:20.467Z,25.73
2023-01-22T14:19:47.415Z,25.74
2023-01-22T14:22:14.351Z,25.72
2023-01-22T14:24:42.613Z,25.72
2023-01-22T14:27:09.684Z,25.71
2023-01-22T14:29:36.602Z,25.71
2023-01-22T14:32:04.061Z,25.70
2023-01-22T14:34:30.959Z,25.70
2023-01-22T14:36:58.050Z,25.69
2023-01-22T14:39:25.027Z,25.69
2023-01-22T14:41:53.330Z,25.67
2023-01-22T14:44:20.599Z,25.68
2023-01-22T14:46:47.504Z,25.67
2023-01-22T14:49:14.456Z,25.67
2023-01-22T14:51:41.450Z,25.68
2023-01-22T14:54:08.296Z,25.67
2023-01-22T14:56:35.255Z,25.66
2023-01-22T14:59:04.641Z,25.66
2023-01-22T15:01:31.578Z,25.65
2023-01-22T15:03:58.465Z,25.66
2023-01-22T15:06:25.463Z,25.70
2023-01-22T15:08:52.422Z,25.71
2023-01-22T15:11:19.418Z,25.74
2023-01-22T15:13:46.371Z,25.77
2023-01-22T15:16:14.754Z,25.79
2023-01-22T15:18:41.693Z,25.82
2023-01-22T15:21:08.715Z,25.84
2023-01-22T15:23:35.919Z,25.85
2023-01-22T15:26:04.972Z,25.86
2023-01-22T15:28:32.316Z,25.88
2023-01-22T15:31:01.493Z,25.89
2023-01-22T15:33:29.918Z,25.90
2023-01-22T15:35:56.854Z,25.90
2023-01-22T15:38:23.757Z,25.91
2023-01-22T15:40:50.655Z,25.92
2023-01-22T15:43:17.530Z,25.93
2023-01-22T15:45:44.461Z,25.93
2023-01-22T15:48:13.905Z,25.94
2023-01-22T15:50:42.277Z,25.95
2023-01-22T15:53:09.303Z,25.96
2023-01-22T15:55:36.262Z,25.96
2023-01-22T15:58:03.124Z,25.97
2023-01-22T16:00:30.007Z,25.93
2023-01-22T16:02:56.899Z,25.92
2023-01-22T16:05:23.833Z,25.90
2023-01-22T16:07:52.686Z,25.88
2023-01-22T16:10:20.058Z,25.87
2023-01-22T16:12:47.163Z,25.85
2023-01-22T16:15:14.165Z,25.84
2023-01-22T16:17:41.144Z,25.83
2023-01-22T16:20:09.973Z,25.81
2023-01-22T16:22:36.907Z,25.81
2023-01-22T16:25:05.906Z,25.80
2023-01-22T16:27:32.886Z,25.78
2023-01-22T16:30:00.672Z,25.77
2023-01-22T16:32:27.886Z,25.75
2023-01-22T16:34:54.881Z,25.75
2023-01-22T16:37:21.790Z,25.74
2023-01-22T16:39:48.694Z,25.74
2023-01-22T16:42:16.983Z,25.72
2023-01-22T16:44:43.889Z,25.71
2023-01-22T16:47:10.829Z,25.70
2023-01-22T16:49:37.757Z,25.70
2023-01-22T16:52:21.543Z,25.68
2023-01-22T16:54:49.899Z,25.66
2023-01-22T16:57:19.491Z,25.65
2023-01-22T16:59:46.492Z,25.65
2023-01-22T17:02:16.063Z,25.64
2023-01-22T17:04:43.263Z,25.64
2023-01-22T17:07:20.466Z,25.62
2023-01-22T17:09:54.644Z,25.60
2023-01-22T17:12:22.913Z,25.60
2023-01-22T17:14:52.680Z,25.59
2023-01-22T17:17:19.665Z,25.59
2023-01-22T17:19:46.704Z,25.58
2023-01-22T17:22:13.695Z,25.58
2023-01-22T17:24:41.705Z,25.58
2023-01-22T17:27:08.736Z,25.58
2023-01-22T17:29:36.970Z,25.57
2023-01-22T17:32:04.323Z,25.57
2023-01-22T17:34:31.494Z,25.56
2023-01-22T17:36:58.363Z,25.56
2023-01-22T17:39:25.380Z,25.57
2023-01-22T17:41:52.237Z,25.57
2023-01-22T17:44:19.298Z,25.55
2023-01-22T17:46:49.301Z,25.56
2023-01-22T17:49:16.715Z,25.57
2023-01-22T17:51:43.742Z,25.55
2023-01-22T17:54:10.782Z,25.55
2023-01-22T17:56:42.999Z,25.56
2023-01-22T17:59:11.972Z,25.55
2023-01-22T18:01:40.438Z,25.55
2023-01-22T18:04:10.556Z,25.55
2023-01-22T18:06:39.039Z,25.55
2023-01-22T18:09:06.954Z,25.54
2023-01-22T18:11:35.175Z,25.53
2023-01-22T18:14:03.893Z,25.52
2023-01-22T18:16:32.737Z,25.52
2023-01-22T18:19:03.366Z,25.50
2023-01-22T18:21:31.677Z,25.49
2023-01-22T18:24:00.083Z,25.48
2023-01-22T18:26:27.531Z,25.47
2023-01-22T18:28:57.063Z,25.46
2023-01-22T18:31:25.564Z,25.44
2023-01-22T18:33:53.643Z,25.44
2023-01-22T18:36:22.959Z,25.41
2023-01-22T18:38:51.850Z,25.41
2023-01-22T18:41:21.664Z,25.40
2023-01-22T18:43:50.479Z,25.39
2023-01-22T18:46:18.480Z,25.37
2023-01-22T18:48:45.452Z,25.36
2023-01-22T18:51:13.444Z,25.34
2023-01-22T18:53:41.325Z,25.32
2023-01-22T18:56:11.355Z,25.32
2023-01-22T18:58:39.234Z,25.31
2023-01-22T19:01:10.052Z,25.29
2023-01-22T19:03:37.300Z,25.29
2023-01-22T19:06:05.875Z,25.27
2023-01-22T19:08:34.894Z,25.27
2023-01-22T19:11:05.333Z,25.26
2023-01-22T19:13:36.468Z,25.26
2023-01-22T19:16:05.552Z,25.27
2023-01-22T19:18:33.043Z,25.27
2023-01-22T19:21:05.286Z,25.26
2023-01-22T19:23:32.884Z,25.26
2023-01-22T19:26:07.623Z,25.25
2023-01-22T19:28:35.936Z,25.26
2023-01-22T19:31:02.878Z,25.25
2023-01-22T19:33:29.807Z,25.25
2023-01-22T19:35:57.104Z,25.23
2023-01-22T19:38:24.074Z,25.22
2023-01-22T19:40:50.973Z,25.23
2023-01-22T19:43:19.793Z,25.24
2023-01-22T19:45:48.114Z,25.23
2023-01-22T19:48:15.356Z,25.22
2023-01-22T19:50:42.333Z,25.21
2023-01-22T19:53:09.227Z,25.22
2023-01-22T19:55:36.931Z,25.22
2023-01-22T19:58:04.888Z,25.22
2023-01-22T20:00:31.795Z,25.22
2023-01-22T20:03:01.392Z,25.20
2023-01-22T20:05:28.323Z,25.19
2023-01-22T20:07:57.237Z,25.19
2023-01-22T20:10:24.123Z,25.20
2023-01-22T20:12:51.156Z,25.20
2023-01-22T20:15:18.410Z,25.19
2023-01-22T20:17:45.450Z,25.19
2023-01-22T20:20:13.866Z,25.20
2023-01-22T20:22:40.840Z,25.19
2023-01-22T20:25:09.154Z,25.19
2023-01-22T20:27:36.501Z,25.19
2023-01-22T20:30:04.264Z,25.19
2023-01-22T20:32:31.246Z,25.19
2023-01-22T20:34:58.346Z,25.18
2023-01-22T20:37:27.086Z,25.16
2023-01-22T20:39:54.111Z,25.12
2023-01-22T20:42:20.978Z,25.09
2023-01-22T20:44:48.104Z,25.08
2023-01-22T20:47:15.061Z,25.07
2023-01-22T20:49:41.975Z,25.05
2023-01-22T20:52:08.877Z,25.04
2023-01-22T20:54:50.113Z,25.02
2023-01-22T20:57:24.859Z,25.02
2023-01-22T20:59:51.739Z,24.99
2023-01-22T21:02:18.742Z,24.98
2023-01-22T21:04:46.108Z,24.96
2023-01-22T21:07:12.965Z,24.92
2023-01-22T21:09:41.538Z,24.88
2023-01-22T21:12:08.826Z,24.86
2023-01-22T21:14:35.806Z,24.84
2023-01-22T21:17:02.646Z,24.82
2023-01-22T21:19:29.647Z,24.80
2023-01-22T21:21:57.419Z,24.79
2023-01-22T21:24:24.776Z,24.76
2023-01-22T21:26:53.256Z,24.75
2023-01-22T21:29:22.322Z,24.72
2023-01-22T21:31:51.496Z,24.69
2023-01-22T21:34:21.098Z,24.68
2023-01-22T21:36:49.678Z,24.66
2023-01-22T21:39:19.779Z,24.63
2023-01-22T21:41:46.736Z,24.61
2023-01-22T21:44:36.072Z,24.59
2023-01-22T21:47:03.947Z,24.53
2023-01-22T21:49:31.435Z,24.52
2023-01-22T21:52:00.472Z,24.49
2023-01-22T21:54:29.488Z,24.47
2023-01-22T21:56:57.035Z,24.46
2023-01-22T21:59:25.781Z,24.46
2023-01-22T22:01:55.955Z,24.42
2023-01-22T22:04:24.734Z,24.39
2023-01-22T22:06:51.699Z,24.39
2023-01-22T22:09:21.136Z,24.37
2023-01-22T22:11:48.519Z,24.36
2023-01-22T22:14:17.511Z,24.34
2023-01-22T22:16:46.615Z,24.32
2023-01-22T22:19:14.339Z,24.31
2023-01-22T22:21:41.644Z,24.29
2023-01-22T22:24:09.004Z,24.28
2023-01-22T22:26:36.429Z,24.26
2023-01-22T22:29:03.775Z,24.25
2023-01-22T22:31:30.781Z,24.24
2023-01-22T22:33:59.343Z,24.22
2023-01-22T22:36:28.072Z,24.21
2023-01-22T22:38:54.963Z,24.19
2023-01-22T22:41:23.929Z,24.18
2023-01-22T22:43:52.336Z,24.18
2023-01-22T22:46:21.945Z,24.16
2023-01-22T22:48:49.808Z,24.16
2023-01-22T22:51:20.441Z,24.14
2023-01-22T22:53:49.018Z,24.13
2023-01-22T22:56:15.892Z,24.12
2023-01-22T22:58:42.848Z,24.10
2023-01-22T23:01:11.191Z,24.09
2023-01-22T23:03:38.916Z,24.07
2023-01-22T23:06:08.596Z,24.07
2023-01-22T23:08:38.171Z,24.06
2023-01-22T23:11:06.342Z,24.05
2023-01-22T23:13:33.744Z,24.02
2023-01-22T23:16:01.642Z,24.03
2023-01-22T23:18:29.252Z,24.08
2023-01-22T23:20:56.430Z,24.13
2023-01-22T23:23:23.354Z,24.15
2023-01-22T23:25:51.627Z,24.19
2023-01-22T23:28:18.527Z,24.24
2023-01-22T23:30:45.536Z,24.30
2023-01-22T23:33:12.522Z,24.35
2023-01-22T23:35:39.438Z,24.40
2023-01-22T23:38:06.344Z,24.42
2023-01-22T23:40:34.159Z,24.44
2023-01-22T23:43:03.523Z,24.46
2023-01-22T23:45:30.377Z,24.46
2023-01-22T23:47:57.473Z,24.49
2023-01-22T23:50:24.341Z,24.48
2023-01-22T23:52:51.293Z,24.49
2023-01-22T23:55:18.242Z,24.48
2023-01-22T23:57:45.134Z,24.47
